Time;durP1;ratioP1;P1;durP2;ratioP2;P2;SDS_P1;SDS_P2;PMS_P1;PMS_P2;Temp;Humidity;BMP_temperature;BMP_pressure;BME280_temperature;BME280_humidity;BME280_pressure;Samples;Min_cycle;Max_cycle;Signal;HPM_P1;HPM_P2
2022/05/08 00:00:24;;;;;;;;;;;11.00;99.90;;;;;;5071229;28;19912;-71
2022/05/08 00:02:54;;;;;;;;;;;10.90;99.90;;;;;;5074787;28;19908;-72
2022/05/08 00:05:19;;;;;;;;;;;10.90;99.90;;;;;;5066466;28;19967;-72
2022/05/08 00:07:45;;;;;;;;;;;10.90;99.90;;;;;;5062891;28;19912;-73
2022/05/08 00:10:11;;;;;;;;;;;10.80;99.90;;;;;;5070181;28;19920;-71
2022/05/08 00:12:37;;;;;;;;;;;10.80;99.90;;;;;;4975836;28;2707579;-72
2022/05/08 00:15:26;;;;;;;;;;;10.70;99.90;;;;;;5071637;28;20009;-72
2022/05/08 00:17:51;;;;;;;;;;;10.60;99.90;;;;;;5065103;28;20237;-72
2022/05/08 00:20:17;;;;;;;;;;;10.50;99.90;;;;;;5060674;28;19990;-71
2022/05/08 00:22:43;;;;;;;;;;;10.50;99.90;;;;;;5065413;28;20303;-71
2022/05/08 00:25:09;;;;;;;;;;;10.40;99.90;;;;;;5073042;28;19967;-70
2022/05/08 00:27:35;;;;;;;;;;;10.40;99.90;;;;;;5070401;28;19963;-72
2022/05/08 00:30:01;;;;;;;;;;;10.30;99.90;;;;;;5075384;28;19913;-72
2022/05/08 00:32:26;;;;;;;;;;;10.20;99.90;;;;;;5071095;28;19948;-71
2022/05/08 00:34:52;;;;;;;;;;;10.20;99.90;;;;;;5064938;28;19921;-70
2022/05/08 00:37:18;;;;;;;;;;;10.20;99.90;;;;;;5069886;28;19912;-70
2022/05/08 00:39:43;;;;;;;;;;;10.20;99.90;;;;;;5068568;28;19952;-71
2022/05/08 00:42:09;;;;;;;;;;;10.10;99.90;;;;;;5067305;28;19908;-70
2022/05/08 00:44:35;;;;;;;;;;;10.10;99.90;;;;;;5072443;28;19913;-73
2022/05/08 00:47:00;;;;;;;;;;;10.00;99.90;;;;;;5070703;28;19913;-71
2022/05/08 00:49:26;;;;;;;;;;;10.00;99.90;;;;;;5073196;28;19912;-71
2022/05/08 00:51:52;;;;;;;;;;;9.90;99.90;;;;;;5069063;28;19917;-71
2022/05/08 00:54:17;;;;;;;;;;;9.90;99.90;;;;;;5073103;28;19923;-70
2022/05/08 00:56:43;;;;;;;;;;;9.90;99.90;;;;;;5062979;28;19916;-71
2022/05/08 00:59:09;;;;;;;;;;;9.80;99.90;;;;;;5072297;28;19919;-71
2022/05/08 01:01:35;;;;;;;;;;;9.80;99.90;;;;;;5070235;28;19912;-73
2022/05/08 01:04:01;;;;;;;;;;;9.80;99.90;;;;;;5075071;28;19917;-72
2022/05/08 01:06:27;;;;;;;;;;;9.80;99.90;;;;;;5071588;28;19951;-71
2022/05/08 01:08:53;;;;;;;;;;;9.70;99.90;;;;;;5065974;28;20294;-71
2022/05/08 01:11:18;;;;;;;;;;;9.70;99.90;;;;;;5071947;28;19959;-71
2022/05/08 01:13:44;;;;;;;;;;;9.60;99.90;;;;;;5067948;28;19956;-71
2022/05/08 01:16:13;;;;;;;;;;;9.60;99.90;;;;;;5076459;28;20315;-71
2022/05/08 01:18:39;;;;;;;;;;;9.50;99.90;;;;;;5075192;28;20022;-72
2022/05/08 01:21:09;;;;;;;;;;;9.50;99.90;;;;;;5074470;28;20345;-71
2022/05/08 01:23:35;;;;;;;;;;;9.50;99.90;;;;;;5062078;28;19958;-70
2022/05/08 01:26:01;;;;;;;;;;;9.40;99.90;;;;;;5071407;28;19999;-71
2022/05/08 01:28:26;;;;;;;;;;;9.40;99.90;;;;;;5071802;28;19944;-73
2022/05/08 01:30:53;;;;;;;;;;;9.30;99.90;;;;;;5074870;28;19963;-71
2022/05/08 01:33:19;;;;;;;;;;;9.30;99.90;;;;;;5059497;28;20301;-73
2022/05/08 01:35:46;;;;;;;;;;;9.20;99.90;;;;;;5064611;28;19947;-71
2022/05/08 01:38:12;;;;;;;;;;;9.20;99.90;;;;;;5075027;28;19923;-71
2022/05/08 01:40:39;;;;;;;;;;;9.20;99.90;;;;;;5067167;28;19957;-72
2022/05/08 01:43:05;;;;;;;;;;;9.10;99.90;;;;;;5064072;28;20366;-72
2022/05/08 01:45:30;;;;;;;;;;;9.10;99.90;;;;;;5072564;28;19912;-71
2022/05/08 01:50:41;;;;;;;;;;;9.10;99.90;;;;;;5063110;28;19996;-71
2022/05/08 01:53:06;;;;;;;;;;;9.10;99.90;;;;;;5066975;28;19996;-71
2022/05/08 01:55:32;;;;;;;;;;;9.10;99.90;;;;;;5074795;28;20299;-72
2022/05/08 01:57:58;;;;;;;;;;;9.00;99.90;;;;;;5077777;28;19955;-71
2022/05/08 02:00:24;;;;;;;;;;;9.00;99.90;;;;;;5075899;28;19916;-71
2022/05/08 02:02:51;;;;;;;;;;;9.00;99.90;;;;;;5073286;28;19916;-71
2022/05/08 02:05:16;;;;;;;;;;;9.10;99.90;;;;;;5061486;28;19920;-72
2022/05/08 02:07:43;;;;;;;;;;;9.10;99.90;;;;;;5061892;28;19916;-72
2022/05/08 02:10:09;;;;;;;;;;;9.10;99.90;;;;;;5074771;28;20304;-73
2022/05/08 02:12:34;;;;;;;;;;;9.10;99.90;;;;;;5068468;28;19928;-73
2022/05/08 02:15:00;;;;;;;;;;;9.10;99.90;;;;;;5059060;28;19924;-71
2022/05/08 02:17:26;;;;;;;;;;;9.00;99.90;;;;;;5074579;28;19923;-71
2022/05/08 02:19:51;;;;;;;;;;;9.10;99.90;;;;;;5075464;28;20295;-71
2022/05/08 02:22:17;;;;;;;;;;;9.10;99.90;;;;;;5074986;28;19920;-71
2022/05/08 02:24:42;;;;;;;;;;;9.00;99.90;;;;;;5074232;28;19912;-70
2022/05/08 02:27:08;;;;;;;;;;;9.00;99.90;;;;;;5077188;28;19913;-71
2022/05/08 02:29:34;;;;;;;;;;;9.00;99.90;;;;;;5077100;28;20374;-73
2022/05/08 02:31:59;;;;;;;;;;;9.00;99.90;;;;;;5072974;28;20050;-71
2022/05/08 02:34:25;;;;;;;;;;;8.90;99.90;;;;;;5069550;28;20011;-71
2022/05/08 02:36:50;;;;;;;;;;;8.90;99.90;;;;;;5070870;28;19920;-71
2022/05/08 02:39:16;;;;;;;;;;;9.00;99.90;;;;;;5075958;28;19916;-71
2022/05/08 02:41:41;;;;;;;;;;;8.90;99.90;;;;;;5068778;28;19920;-72
2022/05/08 02:44:07;;;;;;;;;;;8.90;99.90;;;;;;5070352;28;19966;-71
2022/05/08 02:46:32;;;;;;;;;;;8.90;99.90;;;;;;5068257;28;19970;-71
2022/05/08 02:48:58;;;;;;;;;;;8.80;99.90;;;;;;5060759;28;19909;-71
2022/05/08 02:51:23;;;;;;;;;;;8.80;99.90;;;;;;5063812;28;19965;-71
2022/05/08 02:53:49;;;;;;;;;;;8.90;99.90;;;;;;5076297;28;19985;-71
2022/05/08 02:58:59;;;;;;;;;;;8.80;99.90;;;;;;5060637;28;20026;-71
2022/05/08 03:01:24;;;;;;;;;;;8.80;99.90;;;;;;5073076;28;20335;-71
2022/05/08 03:03:50;;;;;;;;;;;8.80;99.90;;;;;;5076743;28;19909;-71
2022/05/08 03:06:15;;;;;;;;;;;8.80;99.90;;;;;;5073286;28;20304;-71
2022/05/08 03:08:41;;;;;;;;;;;8.70;99.90;;;;;;5073538;28;20219;-71
2022/05/08 03:11:25;;;;;;;;;;;8.80;99.90;;;;;;5072950;28;19920;-71
2022/05/08 03:13:51;;;;;;;;;;;8.80;99.90;;;;;;5072230;28;19939;-70
2022/05/08 03:16:17;;;;;;;;;;;8.70;99.90;;;;;;5072656;28;20323;-71
2022/05/08 03:18:45;;;;;;;;;;;8.70;99.90;;;;;;5066616;28;19996;-71
2022/05/08 03:21:11;;;;;;;;;;;8.70;99.90;;;;;;5063877;28;19934;-71
2022/05/08 03:23:37;;;;;;;;;;;8.70;99.90;;;;;;5073378;28;19912;-73
2022/05/08 03:26:04;;;;;;;;;;;8.80;99.90;;;;;;5067014;28;20315;-71
2022/05/08 03:28:31;;;;;;;;;;;8.70;99.90;;;;;;5071764;28;19962;-71
2022/05/08 03:30:56;;;;;;;;;;;8.70;99.90;;;;;;5065474;28;20205;-71
2022/05/08 03:33:22;;;;;;;;;;;8.60;99.90;;;;;;5072831;28;19923;-71
2022/05/08 03:35:48;;;;;;;;;;;8.60;99.90;;;;;;5071603;28;20199;-72
2022/05/08 03:38:14;;;;;;;;;;;8.50;99.90;;;;;;5060721;28;19946;-71
2022/05/08 03:40:40;;;;;;;;;;;8.50;99.90;;;;;;5068165;28;19948;-73
2022/05/08 03:43:05;;;;;;;;;;;8.50;99.90;;;;;;5071927;28;19966;-71
2022/05/08 03:45:31;;;;;;;;;;;8.50;99.90;;;;;;5066984;28;19916;-71
2022/05/08 03:47:59;;;;;;;;;;;8.50;99.90;;;;;;5061670;28;19923;-70
2022/05/08 03:50:25;;;;;;;;;;;8.50;99.90;;;;;;5069132;28;19919;-71
2022/05/08 03:52:50;;;;;;;;;;;8.50;99.90;;;;;;5064421;28;19920;-71
2022/05/08 03:55:16;;;;;;;;;;;8.50;99.90;;;;;;5065652;28;19917;-72
2022/05/08 03:57:42;;;;;;;;;;;8.50;99.90;;;;;;5056507;28;19917;-71
2022/05/08 04:00:09;;;;;;;;;;;8.50;99.90;;;;;;5071981;28;19920;-71
2022/05/08 04:02:34;;;;;;;;;;;8.40;99.90;;;;;;5062926;28;20003;-73
2022/05/08 04:05:00;;;;;;;;;;;8.50;99.90;;;;;;5074027;28;20338;-71
2022/05/08 04:07:26;;;;;;;;;;;8.50;99.90;;;;;;5073667;28;19920;-71
2022/05/08 04:09:52;;;;;;;;;;;8.50;99.90;;;;;;5060678;28;20383;-71
2022/05/08 04:12:17;;;;;;;;;;;8.50;99.90;;;;;;5062835;28;19964;-71
2022/05/08 04:14:43;;;;;;;;;;;8.50;99.90;;;;;;5055550;28;19970;-71
2022/05/08 04:17:09;;;;;;;;;;;8.50;99.90;;;;;;5060219;28;19932;-71
2022/05/08 04:19:34;;;;;;;;;;;8.60;99.90;;;;;;5070570;28;19917;-71
2022/05/08 04:24:44;;;;;;;;;;;8.60;99.90;;;;;;5072077;28;19978;-71
2022/05/08 04:27:10;;;;;;;;;;;8.60;99.90;;;;;;5072144;28;19912;-71
2022/05/08 04:29:36;;;;;;;;;;;8.60;99.90;;;;;;5068439;28;19936;-71
2022/05/08 04:32:02;;;;;;;;;;;8.70;99.90;;;;;;5070650;28;19921;-72
2022/05/08 04:34:28;;;;;;;;;;;8.70;99.90;;;;;;5071767;28;20310;-71
2022/05/08 04:36:53;;;;;;;;;;;8.70;99.90;;;;;;5069778;28;19920;-70
2022/05/08 04:39:19;;;;;;;;;;;8.80;99.90;;;;;;5068933;28;19912;-71
2022/05/08 04:41:44;;;;;;;;;;;8.80;99.90;;;;;;5069734;28;19922;-73
2022/05/08 04:44:10;;;;;;;;;;;8.80;99.90;;;;;;5072298;28;19944;-71
2022/05/08 04:46:36;;;;;;;;;;;8.90;99.90;;;;;;5073725;28;20269;-71
2022/05/08 04:49:02;;;;;;;;;;;9.00;99.90;;;;;;5072604;28;20273;-71
2022/05/08 04:51:28;;;;;;;;;;;9.00;99.90;;;;;;5073602;28;20230;-71
2022/05/08 04:53:53;;;;;;;;;;;9.10;99.90;;;;;;5072782;28;19913;-73
2022/05/08 04:56:19;;;;;;;;;;;9.10;99.90;;;;;;5073780;28;20318;-71
2022/05/08 04:58:44;;;;;;;;;;;9.20;99.90;;;;;;5075515;28;19970;-72
2022/05/08 05:01:10;;;;;;;;;;;9.20;99.90;;;;;;5075615;28;19963;-70
2022/05/08 05:03:36;;;;;;;;;;;9.20;99.90;;;;;;5072821;28;20311;-71
2022/05/08 05:06:02;;;;;;;;;;;9.20;99.90;;;;;;5074280;28;19966;-71
2022/05/08 05:08:27;;;;;;;;;;;9.30;99.90;;;;;;5072122;28;21754;-71
2022/05/08 05:10:53;;;;;;;;;;;9.40;99.90;;;;;;5074925;28;19912;-71
2022/05/08 05:13:19;;;;;;;;;;;9.40;99.90;;;;;;5072952;28;20231;-71
2022/05/08 05:15:45;;;;;;;;;;;9.40;99.90;;;;;;5075028;28;20223;-72
2022/05/08 05:18:10;;;;;;;;;;;9.40;99.90;;;;;;5074920;28;19919;-71
2022/05/08 05:20:36;;;;;;;;;;;9.50;99.90;;;;;;5075021;28;19934;-72
2022/05/08 05:23:02;;;;;;;;;;;9.50;99.90;;;;;;5075322;28;19930;-71
2022/05/08 05:25:28;;;;;;;;;;;9.50;99.90;;;;;;5075880;28;19990;-71
2022/05/08 05:27:55;;;;;;;;;;;9.60;99.90;;;;;;5074360;28;20230;-71
2022/05/08 05:30:20;;;;;;;;;;;9.60;99.90;;;;;;5075880;28;19967;-72
2022/05/08 05:32:46;;;;;;;;;;;9.70;99.90;;;;;;5074332;28;19955;-72
2022/05/08 05:35:12;;;;;;;;;;;9.60;99.90;;;;;;5073993;28;19958;-71
2022/05/08 05:37:38;;;;;;;;;;;9.70;99.90;;;;;;5074335;28;19916;-71
2022/05/08 05:40:04;;;;;;;;;;;9.70;99.90;;;;;;5075942;28;19958;-72
2022/05/08 05:42:31;;;;;;;;;;;9.70;99.90;;;;;;5071845;28;20007;-71
2022/05/08 05:44:56;;;;;;;;;;;9.70;99.90;;;;;;5075939;28;19912;-71
2022/05/08 05:50:06;;;;;;;;;;;9.90;99.90;;;;;;5072761;28;20353;-71
2022/05/08 05:52:38;;;;;;;;;;;10.00;99.90;;;;;;5070317;28;19927;-72
2022/05/08 05:55:06;;;;;;;;;;;9.90;99.90;;;;;;5050370;28;19970;-72
2022/05/08 05:57:32;;;;;;;;;;;10.00;99.90;;;;;;5071514;28;20007;-73
2022/05/08 05:59:58;;;;;;;;;;;10.00;99.90;;;;;;5072536;28;20015;-71
2022/05/08 06:02:24;;;;;;;;;;;10.00;99.90;;;;;;5074418;28;19919;-72
2022/05/08 06:04:49;;;;;;;;;;;10.00;99.90;;;;;;5074364;28;20007;-72
2022/05/08 06:07:15;;;;;;;;;;;10.00;99.90;;;;;;5071288;28;19924;-72
2022/05/08 06:09:40;;;;;;;;;;;10.10;99.90;;;;;;5073059;28;19916;-72
2022/05/08 06:12:06;;;;;;;;;;;10.00;99.90;;;;;;5072609;28;19916;-72
2022/05/08 06:14:32;;;;;;;;;;;10.10;99.90;;;;;;5074693;28;19985;-72
2022/05/08 06:16:58;;;;;;;;;;;10.20;99.90;;;;;;5072773;28;20022;-71
2022/05/08 06:19:23;;;;;;;;;;;10.20;99.90;;;;;;5072605;28;19912;-72
2022/05/08 06:21:49;;;;;;;;;;;10.30;99.90;;;;;;5074880;28;19920;-72
2022/05/08 06:24:15;;;;;;;;;;;10.30;99.90;;;;;;5074593;28;19912;-71
2022/05/08 06:26:40;;;;;;;;;;;10.30;99.90;;;;;;5073588;28;19920;-72
2022/05/08 06:29:06;;;;;;;;;;;10.40;99.90;;;;;;5072207;28;19912;-72
2022/05/08 06:31:31;;;;;;;;;;;10.50;99.90;;;;;;5070060;28;19920;-72
2022/05/08 06:33:58;;;;;;;;;;;10.50;99.90;;;;;;5073874;28;19923;-72
2022/05/08 06:36:25;;;;;;;;;;;10.40;99.90;;;;;;5074088;28;20306;-71
2022/05/08 06:38:52;;;;;;;;;;;10.40;99.90;;;;;;5074183;28;19979;-72
2022/05/08 06:41:17;;;;;;;;;;;10.50;99.90;;;;;;5074583;28;19923;-72
2022/05/08 06:43:44;;;;;;;;;;;10.60;99.90;;;;;;5073471;28;19920;-72
2022/05/08 06:46:10;;;;;;;;;;;10.70;99.90;;;;;;5070413;28;20355;-72
2022/05/08 06:48:36;;;;;;;;;;;10.80;99.90;;;;;;5071459;28;19916;-72
2022/05/08 06:51:03;;;;;;;;;;;10.80;99.90;;;;;;5070332;28;20004;-72
2022/05/08 06:53:28;;;;;;;;;;;11.00;99.90;;;;;;5071484;28;19958;-72
2022/05/08 06:55:54;;;;;;;;;;;11.00;99.90;;;;;;5062195;28;19917;-72
2022/05/08 06:58:24;;;;;;;;;;;11.00;99.90;;;;;;5070174;28;20218;-71
2022/05/08 07:03:35;;;;;;;;;;;11.10;99.90;;;;;;5064892;28;19995;-72
2022/05/08 07:06:00;;;;;;;;;;;11.10;99.90;;;;;;5071454;28;19927;-72
2022/05/08 07:08:26;;;;;;;;;;;11.30;99.90;;;;;;5071565;28;20227;-72
2022/05/08 07:10:51;;;;;;;;;;;11.50;99.90;;;;;;5067686;28;19923;-71
2022/05/08 07:13:17;;;;;;;;;;;11.60;99.90;;;;;;5070374;28;20272;-71
2022/05/08 07:15:43;;;;;;;;;;;11.60;99.90;;;;;;5072043;28;20370;-72
2022/05/08 07:18:08;;;;;;;;;;;11.70;99.90;;;;;;5070130;28;19916;-72
2022/05/08 07:20:34;;;;;;;;;;;11.80;99.90;;;;;;5072177;28;19919;-72
2022/05/08 07:22:59;;;;;;;;;;;11.70;99.90;;;;;;5072489;28;19936;-71
2022/05/08 07:25:26;;;;;;;;;;;11.80;99.90;;;;;;5073874;28;19942;-71
2022/05/08 07:27:51;;;;;;;;;;;11.90;99.90;;;;;;5074060;28;19923;-71
2022/05/08 07:30:17;;;;;;;;;;;12.00;99.90;;;;;;5072864;28;19921;-71
2022/05/08 07:32:44;;;;;;;;;;;12.10;99.90;;;;;;5071045;28;20235;-71
2022/05/08 07:37:55;;;;;;;;;;;12.20;99.90;;;;;;5072842;28;20223;-71
2022/05/08 07:40:20;;;;;;;;;;;12.60;99.90;;;;;;5071261;28;19912;-71
2022/05/08 07:42:46;;;;;;;;;;;12.70;99.90;;;;;;5073043;28;20054;-72
2022/05/08 07:45:11;;;;;;;;;;;13.00;99.90;;;;;;5073339;28;19923;-71
2022/05/08 07:47:37;;;;;;;;;;;13.30;99.90;;;;;;5072510;28;20021;-71
2022/05/08 07:50:03;;;;;;;;;;;13.50;99.90;;;;;;5072204;28;19924;-71
2022/05/08 07:52:28;;;;;;;;;;;13.40;99.90;;;;;;5071011;28;20227;-72
2022/05/08 07:54:54;;;;;;;;;;;13.60;99.90;;;;;;5072216;28;19919;-71
2022/05/08 07:57:20;;;;;;;;;;;13.60;99.90;;;;;;5071760;28;19955;-71
2022/05/08 07:59:45;;;;;;;;;;;13.60;99.90;;;;;;5067742;28;19912;-72
2022/05/08 08:02:11;;;;;;;;;;;13.80;99.90;;;;;;5061804;28;19923;-71
2022/05/08 08:04:36;;;;;;;;;;;13.70;99.90;;;;;;5072642;28;19928;-71
2022/05/08 08:07:03;;;;;;;;;;;13.50;99.90;;;;;;5065084;28;19923;-71
2022/05/08 08:09:28;;;;;;;;;;;13.40;99.90;;;;;;5070177;28;20231;-71
2022/05/08 08:11:54;;;;;;;;;;;13.10;99.90;;;;;;5071915;28;19916;-71
2022/05/08 08:14:21;;;;;;;;;;;12.70;99.90;;;;;;5071976;28;19916;-71
2022/05/08 08:16:47;;;;;;;;;;;12.50;99.90;;;;;;5072466;28;19917;-69
2022/05/08 08:19:12;;;;;;;;;;;12.40;99.90;;;;;;5072477;28;20012;-71
2022/05/08 08:21:38;;;;;;;;;;;12.40;99.90;;;;;;5073113;28;20011;-71
2022/05/08 08:24:04;;;;;;;;;;;12.40;99.90;;;;;;5076792;28;19966;-71
2022/05/08 08:26:30;;;;;;;;;;;12.20;99.90;;;;;;5075309;28;19939;-70
2022/05/08 08:28:55;;;;;;;;;;;12.10;99.90;;;;;;5073871;28;19979;-71
2022/05/08 08:31:21;;;;;;;;;;;12.10;99.90;;;;;;5062986;28;20307;-71
2022/05/08 08:33:47;;;;;;;;;;;12.30;99.90;;;;;;5075625;28;19949;-72
2022/05/08 08:36:13;;;;;;;;;;;12.60;99.90;;;;;;5062809;28;19920;-71
2022/05/08 08:38:39;;;;;;;;;;;12.70;99.90;;;;;;5075538;28;20219;-71
2022/05/08 08:41:05;;;;;;;;;;;12.90;99.90;;;;;;5074530;28;19996;-70
2022/05/08 08:47:42;;;;;;;;;;;13.00;99.90;;;;;;5072319;28;20144;-70
2022/05/08 08:49:09;;;;;;;;;;;12.80;99.90;;;;;;5059379;28;19935;-70
2022/05/08 08:51:36;;;;;;;;;;;12.60;99.90;;;;;;5058943;28;20227;-70
2022/05/08 08:54:02;;;;;;;;;;;12.50;99.90;;;;;;5069387;28;20318;-71
2022/05/08 08:56:27;;;;;;;;;;;12.70;99.90;;;;;;5068162;28;19916;-71
2022/05/08 08:58:53;;;;;;;;;;;13.10;99.90;;;;;;5068606;28;20287;-71
2022/05/08 09:01:18;;;;;;;;;;;13.00;99.90;;;;;;5059326;28;20015;-71
2022/05/08 09:03:44;;;;;;;;;;;13.00;99.90;;;;;;5058815;28;20227;-71
2022/05/08 09:06:10;;;;;;;;;;;13.30;99.90;;;;;;5076025;28;20192;-71
2022/05/08 09:08:35;;;;;;;;;;;13.40;99.90;;;;;;5077496;28;19989;-71
2022/05/08 09:11:01;;;;;;;;;;;13.50;99.90;;;;;;5076666;28;19924;-71
2022/05/08 09:13:30;;;;;;;;;;;13.60;99.90;;;;;;5065155;28;19931;-71
2022/05/08 09:16:03;;;;;;;;;;;13.60;99.90;;;;;;5068039;28;20378;-73
2022/05/08 09:18:29;;;;;;;;;;;13.40;99.90;;;;;;5072480;28;20292;-72
2022/05/08 09:20:57;;;;;;;;;;;13.40;99.90;;;;;;5074389;28;19930;-70
2022/05/08 09:23:23;;;;;;;;;;;13.40;99.90;;;;;;5073529;28;19921;-71
2022/05/08 09:25:48;;;;;;;;;;;13.60;99.90;;;;;;5064975;28;19924;-70
2022/05/08 09:28:17;;;;;;;;;;;13.90;99.90;;;;;;5072690;28;19916;-70
2022/05/08 09:30:56;;;;;;;;;;;13.70;99.90;;;;;;5075423;28;19958;-69
2022/05/08 09:33:23;;;;;;;;;;;13.70;99.90;;;;;;5064580;28;19928;-70
2022/05/08 09:35:48;;;;;;;;;;;13.80;99.90;;;;;;5074622;28;19912;-71
2022/05/08 09:38:14;;;;;;;;;;;13.90;99.90;;;;;;5073851;28;19919;-70
2022/05/08 09:40:39;;;;;;;;;;;14.00;99.90;;;;;;5064729;28;20298;-71
2022/05/08 09:43:05;;;;;;;;;;;13.80;99.90;;;;;;5073947;28;20322;-70
2022/05/08 09:45:31;;;;;;;;;;;13.80;99.90;;;;;;5074378;28;19912;-70
2022/05/08 09:47:57;;;;;;;;;;;13.50;99.90;;;;;;5074769;28;19916;-70
2022/05/08 09:50:23;;;;;;;;;;;13.60;99.90;;;;;;5072001;28;20196;-71
2022/05/08 09:52:48;;;;;;;;;;;13.60;99.90;;;;;;5068811;28;20235;-71
2022/05/08 09:55:14;;;;;;;;;;;13.80;99.90;;;;;;5071091;28;19951;-70
2022/05/08 09:57:40;;;;;;;;;;;14.10;99.90;;;;;;5057270;28;20261;-70
2022/05/08 10:00:06;;;;;;;;;;;13.80;99.90;;;;;;5057714;28;19992;-71
2022/05/08 10:02:32;;;;;;;;;;;13.90;99.90;;;;;;5060575;28;19924;-69
2022/05/08 10:04:58;;;;;;;;;;;13.80;99.90;;;;;;5072745;28;19918;-70
2022/05/08 10:07:24;;;;;;;;;;;13.70;99.90;;;;;;5057778;28;19958;-70
2022/05/08 10:15:19;;;;;;;;;;;13.80;99.90;;;;;;5064119;28;19923;-70
2022/05/08 10:17:45;;;;;;;;;;;13.60;99.90;;;;;;5075850;28;19971;-70
2022/05/08 10:20:10;;;;;;;;;;;13.80;99.90;;;;;;5075748;28;19913;-70
2022/05/08 10:22:47;;;;;;;;;;;13.90;99.90;;;;;;5075732;28;20002;-70
2022/05/08 10:25:16;;;;;;;;;;;13.90;99.90;;;;;;5057350;28;19916;-70
2022/05/08 10:28:02;;;;;;;;;;;13.90;99.90;;;;;;5063978;28;19967;-70
2022/05/08 10:30:27;;;;;;;;;;;13.80;99.90;;;;;;5065324;28;19966;-70
2022/05/08 10:32:53;;;;;;;;;;;14.00;99.90;;;;;;5059488;28;19928;-70
2022/05/08 10:35:20;;;;;;;;;;;13.80;99.90;;;;;;5067201;28;19940;-71
2022/05/08 10:37:46;;;;;;;;;;;13.70;99.90;;;;;;5059216;28;20266;-70
2022/05/08 10:40:21;;;;;;;;;;;14.10;99.90;;;;;;5056735;28;20303;-70
2022/05/08 10:42:47;;;;;;;;;;;13.90;99.90;;;;;;5074685;28;19917;-70
2022/05/08 10:45:46;;;;;;;;;;;14.20;99.90;;;;;;5062892;28;20304;-70
2022/05/08 10:48:13;;;;;;;;;;;14.00;99.90;;;;;;5060822;28;19917;-70
2022/05/08 10:50:48;;;;;;;;;;;14.00;99.90;;;;;;5051963;28;20015;-70
2022/05/08 10:53:21;;;;;;;;;;;13.90;99.90;;;;;;5051852;28;19921;-70
2022/05/08 10:55:47;;;;;;;;;;;13.80;99.90;;;;;;5061167;28;19917;-69
2022/05/08 10:58:13;;;;;;;;;;;13.90;99.90;;;;;;5056905;28;19942;-69
2022/05/08 11:00:38;;;;;;;;;;;13.70;99.90;;;;;;5056060;28;20594;-70
2022/05/08 11:03:04;;;;;;;;;;;13.80;99.90;;;;;;5052610;28;19916;-69
2022/05/08 11:05:33;;;;;;;;;;;13.90;99.90;;;;;;5058466;28;19923;-70
2022/05/08 11:08:02;;;;;;;;;;;13.70;99.90;;;;;;5060979;28;19920;-70
2022/05/08 11:10:31;;;;;;;;;;;13.70;99.90;;;;;;5071935;28;19928;-69
2022/05/08 11:13:00;;;;;;;;;;;13.70;99.90;;;;;;5062444;28;19929;-71
2022/05/08 11:15:29;;;;;;;;;;;14.00;99.90;;;;;;5056417;28;19960;-70
2022/05/08 11:18:07;;;;;;;;;;;14.00;99.90;;;;;;5064316;28;19909;-69
2022/05/08 11:20:37;;;;;;;;;;;13.70;99.90;;;;;;5059767;28;20557;-72
2022/05/08 11:23:05;;;;;;;;;;;13.80;99.90;;;;;;5069784;28;20238;-70
2022/05/08 11:25:34;;;;;;;;;;;14.10;99.90;;;;;;5072194;28;19920;-69
2022/05/08 11:28:00;;;;;;;;;;;13.90;99.90;;;;;;5058869;28;19959;-70
2022/05/08 11:30:27;;;;;;;;;;;13.80;99.90;;;;;;5060709;28;20565;-70
2022/05/08 11:38:22;;;;;;;;;;;13.90;99.90;;;;;;5052555;28;19932;-70
2022/05/08 11:40:48;;;;;;;;;;;13.70;99.90;;;;;;5056763;28;19916;-72
2022/05/08 11:43:33;;;;;;;;;;;13.60;99.90;;;;;;5054469;28;20409;-70
2022/05/08 11:45:59;;;;;;;;;;;13.60;99.90;;;;;;5059782;28;19923;-72
2022/05/08 11:48:30;;;;;;;;;;;13.90;99.90;;;;;;5061615;28;19913;-71
2022/05/08 11:50:56;;;;;;;;;;;13.80;99.90;;;;;;5052293;28;19963;-70
2022/05/08 11:53:22;;;;;;;;;;;14.00;99.90;;;;;;5052309;28;19952;-69
2022/05/08 11:55:47;;;;;;;;;;;13.90;99.90;;;;;;5063082;28;19916;-70
2022/05/08 11:58:13;;;;;;;;;;;14.20;99.90;;;;;;5061785;28;19916;-70
2022/05/08 12:00:38;;;;;;;;;;;14.20;99.90;;;;;;5063936;28;19916;-70
2022/05/08 12:03:04;;;;;;;;;;;14.20;99.90;;;;;;5057308;28;19959;-70
2022/05/08 12:05:30;;;;;;;;;;;14.30;99.90;;;;;;5050895;28;20223;-69
2022/05/08 12:07:56;;;;;;;;;;;14.30;99.90;;;;;;5051159;28;19921;-70
2022/05/08 12:10:35;;;;;;;;;;;14.20;99.90;;;;;;5065417;28;19928;-70
2022/05/08 12:13:04;;;;;;;;;;;14.30;99.90;;;;;;5071528;28;20387;-70
2022/05/08 12:15:30;;;;;;;;;;;14.30;99.90;;;;;;5070259;28;19921;-70
2022/05/08 12:17:58;;;;;;;;;;;14.10;99.90;;;;;;5059559;28;19917;-70
2022/05/08 12:20:28;;;;;;;;;;;14.50;99.90;;;;;;5059134;28;20350;-70
2022/05/08 12:22:58;;;;;;;;;;;14.50;99.90;;;;;;5071810;28;19917;-70
2022/05/08 12:25:24;;;;;;;;;;;14.50;99.90;;;;;;5055986;28;20003;-70
2022/05/08 12:27:49;;;;;;;;;;;14.50;99.90;;;;;;5058592;28;20013;-69
2022/05/08 12:30:15;;;;;;;;;;;14.30;99.90;;;;;;5052345;28;19982;-70
2022/05/08 12:32:41;;;;;;;;;;;14.20;99.90;;;;;;5059837;28;19916;-69
2022/05/08 12:35:11;;;;;;;;;;;14.20;99.90;;;;;;5052181;28;19942;-69
2022/05/08 12:37:39;;;;;;;;;;;14.40;99.90;;;;;;5060504;28;19939;-70
2022/05/08 12:40:06;;;;;;;;;;;14.40;99.90;;;;;;5051827;28;19917;-70
2022/05/08 12:42:31;;;;;;;;;;;14.60;99.90;;;;;;5051802;28;20024;-70
2022/05/08 12:44:57;;;;;;;;;;;14.70;99.90;;;;;;5054322;28;20019;-70
2022/05/08 12:47:22;;;;;;;;;;;14.50;99.90;;;;;;5062734;28;19917;-70
2022/05/08 12:49:53;;;;;;;;;;;14.50;99.90;;;;;;5070844;28;19939;-69
2022/05/08 12:52:19;;;;;;;;;;;14.40;99.90;;;;;;5065893;28;20007;-72
2022/05/08 12:54:44;;;;;;;;;;;14.20;99.90;;;;;;5060196;28;19920;-70
2022/05/08 12:57:10;;;;;;;;;;;14.30;99.90;;;;;;5071562;28;19987;-69
2022/05/08 12:59:49;;;;;;;;;;;14.30;99.90;;;;;;5063874;28;20008;-70
2022/05/08 13:02:15;;;;;;;;;;;14.30;99.90;;;;;;5051861;28;20270;-70
2022/05/08 13:04:42;;;;;;;;;;;14.50;99.90;;;;;;5050444;28;19923;-70
2022/05/08 13:07:08;;;;;;;;;;;14.60;99.90;;;;;;5059926;28;20015;-70
2022/05/08 13:09:34;;;;;;;;;;;14.60;99.90;;;;;;5055443;28;19948;-70
2022/05/08 13:12:00;;;;;;;;;;;14.60;99.90;;;;;;5056650;28;19987;-70
2022/05/08 13:14:25;;;;;;;;;;;15.00;99.90;;;;;;5072367;28;19921;-70
2022/05/08 13:16:51;;;;;;;;;;;15.00;99.90;;;;;;5057399;28;20235;-72
2022/05/08 13:19:17;;;;;;;;;;;15.10;99.90;;;;;;5067234;28;20012;-70
2022/05/08 13:21:44;;;;;;;;;;;15.10;99.90;;;;;;5058425;28;19912;-69
2022/05/08 13:24:10;;;;;;;;;;;14.80;99.90;;;;;;5054607;28;19962;-69
2022/05/08 13:26:36;;;;;;;;;;;14.80;99.90;;;;;;5055430;28;20468;-69
2022/05/08 13:29:03;;;;;;;;;;;14.80;99.90;;;;;;5055909;28;19987;-70
2022/05/08 13:31:28;;;;;;;;;;;14.80;99.90;;;;;;5060364;28;20273;-70
2022/05/08 13:33:54;;;;;;;;;;;14.90;99.90;;;;;;5065487;28;19916;-72
2022/05/08 13:36:19;;;;;;;;;;;15.20;99.90;;;;;;5055192;28;19920;-70
2022/05/08 13:38:46;;;;;;;;;;;15.20;99.90;;;;;;5055170;28;19913;-69
2022/05/08 13:41:12;;;;;;;;;;;15.00;99.90;;;;;;5065966;28;19920;-70
2022/05/08 13:43:38;;;;;;;;;;;15.10;99.90;;;;;;5060274;28;20029;-70
2022/05/08 13:46:04;;;;;;;;;;;15.20;99.90;;;;;;5054479;28;20475;-70
2022/05/08 13:48:30;;;;;;;;;;;15.00;99.90;;;;;;5062390;28;20208;-70
2022/05/08 13:50:56;;;;;;;;;;;14.90;99.90;;;;;;5069904;28;19919;-69
2022/05/08 13:53:21;;;;;;;;;;;15.10;99.90;;;;;;5057617;28;19925;-70
2022/05/08 13:55:49;;;;;;;;;;;15.30;99.90;;;;;;5059667;28;19913;-69
2022/05/08 13:58:15;;;;;;;;;;;15.00;99.90;;;;;;5064768;28;19987;-70
2022/05/08 14:00:41;;;;;;;;;;;14.90;99.90;;;;;;5061117;28;20032;-69
2022/05/08 14:03:07;;;;;;;;;;;14.80;99.90;;;;;;5056996;28;20356;-69
2022/05/08 14:05:33;;;;;;;;;;;14.70;99.90;;;;;;5066605;28;19916;-69
2022/05/08 14:07:59;;;;;;;;;;;14.60;99.90;;;;;;5064839;28;20007;-70
2022/05/08 14:10:25;;;;;;;;;;;14.60;99.90;;;;;;5071027;28;19970;-71
2022/05/08 14:12:51;;;;;;;;;;;14.80;99.90;;;;;;5072329;28;19931;-72
2022/05/08 14:15:21;;;;;;;;;;;15.00;99.90;;;;;;5067304;28;19917;-72
2022/05/08 14:17:52;;;;;;;;;;;14.60;99.90;;;;;;5069085;28;20053;-71
2022/05/08 14:20:19;;;;;;;;;;;14.60;99.90;;;;;;5071852;28;19916;-71
2022/05/08 14:22:44;;;;;;;;;;;14.60;99.90;;;;;;5069655;28;20374;-72
2022/05/08 14:25:11;;;;;;;;;;;14.80;99.90;;;;;;5069215;28;19970;-72
2022/05/08 14:27:36;;;;;;;;;;;14.90;99.90;;;;;;5072373;28;19916;-71
2022/05/08 14:30:05;;;;;;;;;;;15.00;99.90;;;;;;5072725;28;20007;-72
2022/05/08 14:37:59;;;;;;;;;;;14.80;99.90;;;;;;5070668;28;19922;-71
2022/05/08 14:40:25;;;;;;;;;;;14.80;99.90;;;;;;5062084;28;19916;-69
2022/05/08 14:42:51;;;;;;;;;;;14.90;99.90;;;;;;5058608;28;19920;-70
2022/05/08 14:45:17;;;;;;;;;;;15.10;99.90;;;;;;5060163;28;19916;-70
2022/05/08 14:47:42;;;;;;;;;;;15.30;99.90;;;;;;5073178;28;19999;-69
2022/05/08 14:50:08;;;;;;;;;;;15.10;99.90;;;;;;5068516;28;19940;-71
2022/05/08 14:52:34;;;;;;;;;;;14.90;99.90;;;;;;5069264;28;19924;-71